sensor_id;sensor_type;location;lat;lon;timestamp;pressure;altitude;pressure_sealevel;temperature;humidity
73936;BME280;62287;50.858;0.252;2023-04-03T00:00:11;102847.05;;;12.85;36.33
73936;BME280;62287;50.858;0.252;2023-04-03T00:00:42;102847.99;;;12.88;36.26
73936;BME280;62287;50.858;0.252;2023-04-03T00:01:13;102847.84;;;12.80;36.46
73936;BME280;62287;50.858;0.252;2023-04-03T00:01:44;102845.86;;;13.07;36.48
73936;BME280;62287;50.858;0.252;2023-04-03T00:02:15;102846.45;;;12.66;36.53
73936;BME280;62287;50.858;0.252;2023-04-03T00:02:46;102846.68;;;12.67;36.45
73936;BME280;62287;50.858;0.252;2023-04-03T00:03:18;102845.84;;;12.58;36.47
73936;BME280;62287;50.858;0.252;2023-04-03T00:03:49;102845.85;;;12.64;36.45
73936;BME280;62287;50.858;0.252;2023-04-03T00:04:20;102847.70;;;12.78;36.40
73936;BME280;62287;50.858;0.252;2023-04-03T00:04:51;102844.24;;;13.11;36.29
73936;BME280;62287;50.858;0.252;2023-04-03T00:05:21;102843.91;;;12.83;36.34
73936;BME280;62287;50.858;0.252;2023-04-03T00:05:52;102841.96;;;12.95;36.41
73936;BME280;62287;50.858;0.252;2023-04-03T00:06:24;102842.72;;;12.93;36.38
73936;BME280;62287;50.858;0.252;2023-04-03T00:06:56;102841.13;;;12.72;36.33
73936;BME280;62287;50.858;0.252;2023-04-03T00:07:27;102841.50;;;12.62;36.33
73936;BME280;62287;50.858;0.252;2023-04-03T00:07:57;102839.34;;;13.03;36.41
73936;BME280;62287;50.858;0.252;2023-04-03T00:08:29;102839.80;;;12.51;36.43
73936;BME280;62287;50.858;0.252;2023-04-03T00:09:00;102838.56;;;12.92;36.38
73936;BME280;62287;50.858;0.252;2023-04-03T00:09:32;102841.66;;;13.42;36.43
73936;BME280;62287;50.858;0.252;2023-04-03T00:10:03;102841.74;;;12.98;36.54
73936;BME280;62287;50.858;0.252;2023-04-03T00:10:35;102838.59;;;12.63;36.53
73936;BME280;62287;50.858;0.252;2023-04-03T00:11:07;102840.64;;;12.54;36.48
73936;BME280;62287;50.858;0.252;2023-04-03T00:11:38;102838.68;;;12.82;36.80
73936;BME280;62287;50.858;0.252;2023-04-03T00:12:09;102837.13;;;12.54;36.76
73936;BME280;62287;50.858;0.252;2023-04-03T00:12:40;102838.82;;;12.60;36.78
73936;BME280;62287;50.858;0.252;2023-04-03T00:13:11;102837.02;;;12.92;36.87
73936;BME280;62287;50.858;0.252;2023-04-03T00:13:42;102838.64;;;12.57;36.73
73936;BME280;62287;50.858;0.252;2023-04-03T00:14:13;102836.48;;;13.03;36.74
73936;BME280;62287;50.858;0.252;2023-04-03T00:14:44;102837.59;;;12.69;36.72
73936;BME280;62287;50.858;0.252;2023-04-03T00:15:15;102837.80;;;12.56;36.75
73936;BME280;62287;50.858;0.252;2023-04-03T00:15:46;102840.19;;;12.62;36.78
73936;BME280;62287;50.858;0.252;2023-04-03T00:16:17;102840.76;;;12.53;36.63
73936;BME280;62287;50.858;0.252;2023-04-03T00:16:48;102838.06;;;12.70;36.69
73936;BME280;62287;50.858;0.252;2023-04-03T00:17:19;102838.81;;;12.87;36.71
73936;BME280;62287;50.858;0.252;2023-04-03T00:17:50;102840.83;;;12.83;36.68
73936;BME280;62287;50.858;0.252;2023-04-03T00:18:21;102839.21;;;12.87;36.54
73936;BME280;62287;50.858;0.252;2023-04-03T00:18:53;102838.86;;;12.43;36.58
73936;BME280;62287;50.858;0.252;2023-04-03T00:19:24;102837.81;;;12.97;36.50
73936;BME280;62287;50.858;0.252;2023-04-03T00:19:55;102839.25;;;12.66;36.53
73936;BME280;62287;50.858;0.252;2023-04-03T00:20:26;102836.60;;;12.49;36.63
73936;BME280;62287;50.858;0.252;2023-04-03T00:20:57;102835.62;;;12.47;36.88
73936;BME280;62287;50.858;0.252;2023-04-03T00:21:28;102835.25;;;12.80;36.81
73936;BME280;62287;50.858;0.252;2023-04-03T00:21:59;102835.57;;;12.77;36.84
73936;BME280;62287;50.858;0.252;2023-04-03T00:22:30;102833.25;;;12.45;36.79
73936;BME280;62287;50.858;0.252;2023-04-03T00:23:02;102832.76;;;12.80;36.79
73936;BME280;62287;50.858;0.252;2023-04-03T00:23:34;102832.56;;;12.46;36.94
73936;BME280;62287;50.858;0.252;2023-04-03T00:24:05;102832.64;;;12.85;36.98
73936;BME280;62287;50.858;0.252;2023-04-03T00:24:36;102831.45;;;12.53;36.99
73936;BME280;62287;50.858;0.252;2023-04-03T00:25:08;102829.20;;;12.48;36.99
73936;BME280;62287;50.858;0.252;2023-04-03T00:25:39;102829.12;;;12.59;36.95
73936;BME280;62287;50.858;0.252;2023-04-03T00:26:10;102827.87;;;13.09;36.91
73936;BME280;62287;50.858;0.252;2023-04-03T00:26:41;102827.51;;;12.62;36.94
73936;BME280;62287;50.858;0.252;2023-04-03T00:27:12;102825.31;;;12.94;36.87
73936;BME280;62287;50.858;0.252;2023-04-03T00:27:43;102826.47;;;12.85;36.84
73936;BME280;62287;50.858;0.252;2023-04-03T00:28:14;102825.91;;;13.05;36.93
73936;BME280;62287;50.858;0.252;2023-04-03T00:28:45;102824.77;;;12.80;36.85
73936;BME280;62287;50.858;0.252;2023-04-03T00:29:16;102824.40;;;12.62;36.89
73936;BME280;62287;50.858;0.252;2023-04-03T00:29:47;102824.04;;;12.53;36.78
73936;BME280;62287;50.858;0.252;2023-04-03T00:30:20;102822.70;;;13.20;36.78
73936;BME280;62287;50.858;0.252;2023-04-03T00:30:51;102824.12;;;13.37;36.71
73936;BME280;62287;50.858;0.252;2023-04-03T00:31:23;102824.41;;;12.86;36.78
73936;BME280;62287;50.858;0.252;2023-04-03T00:31:53;102821.75;;;12.21;36.78
73936;BME280;62287;50.858;0.252;2023-04-03T00:32:24;102822.99;;;12.44;36.85
73936;BME280;62287;50.858;0.252;2023-04-03T00:32:56;102822.73;;;12.39;37.01
73936;BME280;62287;50.858;0.252;2023-04-03T00:33:27;102823.52;;;12.40;36.95
73936;BME280;62287;50.858;0.252;2023-04-03T00:33:58;102824.30;;;12.58;36.87
73936;BME280;62287;50.858;0.252;2023-04-03T00:34:29;102820.69;;;12.35;36.85
73936;BME280;62287;50.858;0.252;2023-04-03T00:35:02;102824.42;;;12.55;36.81
73936;BME280;62287;50.858;0.252;2023-04-03T00:35:34;102824.48;;;12.88;36.73
73936;BME280;62287;50.858;0.252;2023-04-03T00:36:07;102824.32;;;13.19;36.69
73936;BME280;62287;50.858;0.252;2023-04-03T00:36:38;102823.30;;;12.61;36.56
73936;BME280;62287;50.858;0.252;2023-04-03T00:37:09;102822.52;;;12.63;36.56
73936;BME280;62287;50.858;0.252;2023-04-03T00:37:40;102821.82;;;12.37;36.65
73936;BME280;62287;50.858;0.252;2023-04-03T00:38:11;102820.46;;;12.27;36.73
73936;BME280;62287;50.858;0.252;2023-04-03T00:38:42;102821.29;;;12.71;36.78
73936;BME280;62287;50.858;0.252;2023-04-03T00:39:13;102819.31;;;12.81;36.89
73936;BME280;62287;50.858;0.252;2023-04-03T00:39:47;102818.79;;;13.07;36.80
73936;BME280;62287;50.858;0.252;2023-04-03T00:40:18;102819.52;;;12.89;36.61
73936;BME280;62287;50.858;0.252;2023-04-03T00:40:50;102818.63;;;12.45;36.54
73936;BME280;62287;50.858;0.252;2023-04-03T00:41:21;102817.70;;;13.11;36.57
73936;BME280;62287;50.858;0.252;2023-04-03T00:41:52;102816.49;;;12.49;36.51
73936;BME280;62287;50.858;0.252;2023-04-03T00:42:23;102817.17;;;12.43;36.54
73936;BME280;62287;50.858;0.252;2023-04-03T00:42:57;102819.07;;;12.42;36.53
73936;BME280;62287;50.858;0.252;2023-04-03T00:43:28;102819.16;;;12.47;36.52
73936;BME280;62287;50.858;0.252;2023-04-03T00:43:59;102818.61;;;12.66;36.60
73936;BME280;62287;50.858;0.252;2023-04-03T00:45:36;102818.54;;;12.39;36.58
73936;BME280;62287;50.858;0.252;2023-04-03T00:46:08;102817.87;;;12.88;36.68
73936;BME280;62287;50.858;0.252;2023-04-03T00:46:38;102818.00;;;12.40;36.63
73936;BME280;62287;50.858;0.252;2023-04-03T00:47:12;102818.43;;;12.68;36.57
73936;BME280;62287;50.858;0.252;2023-04-03T00:47:44;102816.46;;;13.19;36.63
73936;BME280;62287;50.858;0.252;2023-04-03T00:48:18;102816.00;;;12.37;36.70
73936;BME280;62287;50.858;0.252;2023-04-03T00:48:50;102818.06;;;12.77;36.70
73936;BME280;62287;50.858;0.252;2023-04-03T00:49:21;102816.57;;;12.29;36.81
73936;BME280;62287;50.858;0.252;2023-04-03T00:49:53;102816.83;;;12.68;36.81
73936;BME280;62287;50.858;0.252;2023-04-03T00:50:24;102816.20;;;12.54;36.70
73936;BME280;62287;50.858;0.252;2023-04-03T00:50:56;102815.43;;;12.52;36.60
73936;BME280;62287;50.858;0.252;2023-04-03T00:51:27;102813.62;;;12.73;36.67
73936;BME280;62287;50.858;0.252;2023-04-03T00:51:59;102815.37;;;12.85;36.78
73936;BME280;62287;50.858;0.252;2023-04-03T00:52:30;102814.25;;;12.29;36.71
73936;BME280;62287;50.858;0.252;2023-04-03T00:53:04;102816.02;;;12.29;36.73
73936;BME280;62287;50.858;0.252;2023-04-03T00:53:38;102816.55;;;12.96;36.76
73936;BME280;62287;50.858;0.252;2023-04-03T00:54:10;102817.78;;;12.32;36.78
73936;BME280;62287;50.858;0.252;2023-04-03T00:54:43;102816.43;;;12.60;36.75
73936;BME280;62287;50.858;0.252;2023-04-03T00:55:15;102818.74;;;12.28;36.79
73936;BME280;62287;50.858;0.252;2023-04-03T00:55:47;102818.26;;;12.40;36.74
73936;BME280;62287;50.858;0.252;2023-04-03T00:56:59;102818.80;;;12.65;36.75
73936;BME280;62287;50.858;0.252;2023-04-03T00:57:31;102816.78;;;12.38;36.64
73936;BME280;62287;50.858;0.252;2023-04-03T00:58:03;102817.91;;;12.77;36.71
73936;BME280;62287;50.858;0.252;2023-04-03T00:58:38;102818.07;;;12.62;36.63
73936;BME280;62287;50.858;0.252;2023-04-03T00:59:13;102818.26;;;12.27;36.57
73936;BME280;62287;50.858;0.252;2023-04-03T00:59:49;102817.70;;;12.85;36.67
73936;BME280;62287;50.858;0.252;2023-04-03T01:00:23;102816.28;;;13.13;36.64
73936;BME280;62287;50.858;0.252;2023-04-03T01:00:57;102817.77;;;12.49;36.59
73936;BME280;62287;50.858;0.252;2023-04-03T01:01:29;102816.51;;;12.77;36.57
73936;BME280;62287;50.858;0.252;2023-04-03T01:02:03;102815.27;;;12.53;36.53
73936;BME280;62287;50.858;0.252;2023-04-03T01:02:33;102815.58;;;12.24;36.63
73936;BME280;62287;50.858;0.252;2023-04-03T01:03:04;102815.86;;;12.70;36.66
73936;BME280;62287;50.858;0.252;2023-04-03T01:03:36;102813.88;;;12.92;36.56
73936;BME280;62287;50.858;0.252;2023-04-03T01:04:27;102815.28;;;12.49;36.49
73936;BME280;62287;50.858;0.252;2023-04-03T01:04:58;102815.06;;;12.60;36.62
73936;BME280;62287;50.858;0.252;2023-04-03T01:05:29;102816.10;;;12.49;36.60
73936;BME280;62287;50.858;0.252;2023-04-03T01:06:02;102813.94;;;12.33;36.62
73936;BME280;62287;50.858;0.252;2023-04-03T01:06:37;102815.51;;;12.51;36.60
73936;BME280;62287;50.858;0.252;2023-04-03T01:07:09;102816.89;;;12.70;36.54
73936;BME280;62287;50.858;0.252;2023-04-03T01:07:41;102815.26;;;12.73;36.62
73936;BME280;62287;50.858;0.252;2023-04-03T01:08:12;102815.90;;;12.97;36.63
73936;BME280;62287;50.858;0.252;2023-04-03T01:08:44;102815.13;;;12.67;36.67
73936;BME280;62287;50.858;0.252;2023-04-03T01:09:15;102814.39;;;12.74;36.76
73936;BME280;62287;50.858;0.252;2023-04-03T01:09:47;102816.19;;;12.21;36.78
73936;BME280;62287;50.858;0.252;2023-04-03T01:10:20;102815.30;;;12.53;36.91
73936;BME280;62287;50.858;0.252;2023-04-03T01:10:51;102816.16;;;12.53;36.87
73936;BME280;62287;50.858;0.252;2023-04-03T01:11:22;102815.70;;;12.73;36.72
73936;BME280;62287;50.858;0.252;2023-04-03T01:11:53;102816.67;;;12.67;36.74
73936;BME280;62287;50.858;0.252;2023-04-03T01:12:26;102815.66;;;13.05;36.72
73936;BME280;62287;50.858;0.252;2023-04-03T01:12:57;102815.28;;;12.18;36.81
73936;BME280;62287;50.858;0.252;2023-04-03T01:13:32;102815.81;;;12.78;36.71
73936;BME280;62287;50.858;0.252;2023-04-03T01:14:03;102814.62;;;12.82;36.63
73936;BME280;62287;50.858;0.252;2023-04-03T01:14:34;102817.24;;;12.70;36.69
73936;BME280;62287;50.858;0.252;2023-04-03T01:15:08;102817.18;;;13.11;36.64
73936;BME280;62287;50.858;0.252;2023-04-03T01:15:39;102816.25;;;12.47;36.85
73936;BME280;62287;50.858;0.252;2023-04-03T01:16:10;102816.84;;;12.94;36.84
73936;BME280;62287;50.858;0.252;2023-04-03T01:16:41;102816.89;;;12.32;36.82
73936;BME280;62287;50.858;0.252;2023-04-03T01:17:29;102817.22;;;12.44;36.85
73936;BME280;62287;50.858;0.252;2023-04-03T01:18:04;102814.22;;;12.84;36.81
73936;BME280;62287;50.858;0.252;2023-04-03T01:18:37;102813.85;;;12.84;36.81
73936;BME280;62287;50.858;0.252;2023-04-03T01:19:14;102814.13;;;12.22;36.80
73936;BME280;62287;50.858;0.252;2023-04-03T01:19:50;102815.84;;;12.70;36.76
73936;BME280;62287;50.858;0.252;2023-04-03T01:20:43;102815.32;;;12.40;36.75
73936;BME280;62287;50.858;0.252;2023-04-03T01:22:03;102816.05;;;12.53;36.90
73936;BME280;62287;50.858;0.252;2023-04-03T01:22:45;102815.76;;;13.12;36.76
73936;BME280;62287;50.858;0.252;2023-04-03T01:23:30;102814.78;;;12.38;36.74
73936;BME280;62287;50.858;0.252;2023-04-03T01:24:17;102815.54;;;12.62;36.90
73936;BME280;62287;50.858;0.252;2023-04-03T01:24:52;102811.87;;;12.28;36.78
73936;BME280;62287;50.858;0.252;2023-04-03T01:25:23;102813.29;;;12.75;36.80
73936;BME280;62287;50.858;0.252;2023-04-03T01:25:56;102811.05;;;12.27;36.81
73936;BME280;62287;50.858;0.252;2023-04-03T01:26:27;102811.37;;;12.37;36.74
73936;BME280;62287;50.858;0.252;2023-04-03T01:26:59;102809.04;;;12.67;36.76
73936;BME280;62287;50.858;0.252;2023-04-03T01:27:32;102809.53;;;12.95;36.81
73936;BME280;62287;50.858;0.252;2023-04-03T01:28:03;102809.79;;;12.68;36.84
73936;BME280;62287;50.858;0.252;2023-04-03T01:28:36;102809.19;;;12.64;36.88
73936;BME280;62287;50.858;0.252;2023-04-03T01:29:07;102810.34;;;12.55;36.85
73936;BME280;62287;50.858;0.252;2023-04-03T01:29:38;102809.69;;;12.62;36.86
73936;BME280;62287;50.858;0.252;2023-04-03T01:30:12;102808.65;;;12.75;36.83
73936;BME280;62287;50.858;0.252;2023-04-03T01:30:46;102807.12;;;12.27;36.78
73936;BME280;62287;50.858;0.252;2023-04-03T01:31:22;102807.10;;;12.86;36.83
73936;BME280;62287;50.858;0.252;2023-04-03T01:31:58;102807.57;;;12.72;36.78
73936;BME280;62287;50.858;0.252;2023-04-03T01:32:29;102808.86;;;12.98;36.84
73936;BME280;62287;50.858;0.252;2023-04-03T01:33:02;102807.45;;;12.15;36.85
73936;BME280;62287;50.858;0.252;2023-04-03T01:33:34;102807.16;;;12.17;36.93
73936;BME280;62287;50.858;0.252;2023-04-03T01:34:05;102809.68;;;12.97;36.90
73936;BME280;62287;50.858;0.252;2023-04-03T01:34:36;102807.75;;;12.56;36.94
73936;BME280;62287;50.858;0.252;2023-04-03T01:35:07;102809.79;;;12.31;36.77
73936;BME280;62287;50.858;0.252;2023-04-03T01:35:38;102805.31;;;13.02;36.87
73936;BME280;62287;50.858;0.252;2023-04-03T01:36:13;102803.17;;;12.28;36.96
73936;BME280;62287;50.858;0.252;2023-04-03T01:36:44;102804.60;;;12.61;36.87
73936;BME280;62287;50.858;0.252;2023-04-03T01:37:15;102805.36;;;13.04;36.83
73936;BME280;62287;50.858;0.252;2023-04-03T01:37:46;102803.48;;;12.51;36.86
73936;BME280;62287;50.858;0.252;2023-04-03T01:38:17;102802.20;;;12.78;36.97
73936;BME280;62287;50.858;0.252;2023-04-03T01:38:48;102802.20;;;12.43;36.99
73936;BME280;62287;50.858;0.252;2023-04-03T01:39:20;102803.78;;;12.54;36.97
73936;BME280;62287;50.858;0.252;2023-04-03T01:39:51;102800.19;;;12.22;36.84
73936;BME280;62287;50.858;0.252;2023-04-03T01:40:22;102802.09;;;12.97;36.88
73936;BME280;62287;50.858;0.252;2023-04-03T01:40:53;102801.72;;;12.68;36.78
73936;BME280;62287;50.858;0.252;2023-04-03T01:41:24;102800.96;;;12.28;36.76
73936;BME280;62287;50.858;0.252;2023-04-03T01:41:55;102800.59;;;12.63;36.77
73936;BME280;62287;50.858;0.252;2023-04-03T01:42:26;102799.78;;;12.78;36.71
73936;BME280;62287;50.858;0.252;2023-04-03T01:42:57;102799.97;;;12.67;36.87
73936;BME280;62287;50.858;0.252;2023-04-03T01:43:28;102801.78;;;12.57;36.91
73936;BME280;62287;50.858;0.252;2023-04-03T01:43:59;102798.85;;;12.12;36.95
73936;BME280;62287;50.858;0.252;2023-04-03T01:44:30;102799.02;;;12.99;36.89
73936;BME280;62287;50.858;0.252;2023-04-03T01:45:03;102800.75;;;12.57;36.91
73936;BME280;62287;50.858;0.252;2023-04-03T01:45:34;102797.58;;;12.92;36.96
73936;BME280;62287;50.858;0.252;2023-04-03T01:46:05;102798.02;;;12.02;36.94
73936;BME280;62287;50.858;0.252;2023-04-03T01:46:36;102797.14;;;12.58;37.05
73936;BME280;62287;50.858;0.252;2023-04-03T01:47:07;102795.68;;;12.20;37.06
73936;BME280;62287;50.858;0.252;2023-04-03T01:47:38;102797.98;;;13.33;37.01
73936;BME280;62287;50.858;0.252;2023-04-03T01:48:09;102794.40;;;12.45;37.10
73936;BME280;62287;50.858;0.252;2023-04-03T01:48:41;102796.94;;;12.81;36.98
73936;BME280;62287;50.858;0.252;2023-04-03T01:49:12;102795.75;;;12.33;36.84
73936;BME280;62287;50.858;0.252;2023-04-03T01:49:43;102796.66;;;12.50;36.99
73936;BME280;62287;50.858;0.252;2023-04-03T01:50:14;102795.38;;;12.50;37.06
73936;BME280;62287;50.858;0.252;2023-04-03T01:50:45;102795.12;;;12.88;37.08
73936;BME280;62287;50.858;0.252;2023-04-03T01:51:16;102794.50;;;12.45;37.00
73936;BME280;62287;50.858;0.252;2023-04-03T01:51:47;102793.22;;;12.49;36.95
73936;BME280;62287;50.858;0.252;2023-04-03T01:52:18;102793.80;;;12.89;37.01
73936;BME280;62287;50.858;0.252;2023-04-03T01:52:49;102795.60;;;12.33;36.98
73936;BME280;62287;50.858;0.252;2023-04-03T01:53:20;102794.90;;;12.96;36.87
73936;BME280;62287;50.858;0.252;2023-04-03T01:53:51;102795.81;;;12.99;36.82
73936;BME280;62287;50.858;0.252;2023-04-03T01:54:22;102794.39;;;12.17;37.01
73936;BME280;62287;50.858;0.252;2023-04-03T01:54:53;102794.73;;;12.84;37.09
73936;BME280;62287;50.858;0.252;2023-04-03T01:55:24;102793.98;;;12.00;37.07
73936;BME280;62287;50.858;0.252;2023-04-03T01:55:55;102795.85;;;12.56;36.95
73936;BME280;62287;50.858;0.252;2023-04-03T01:56:25;102796.43;;;12.20;36.98
73936;BME280;62287;50.858;0.252;2023-04-03T01:56:56;102795.39;;;12.93;37.00
73936;BME280;62287;50.858;0.252;2023-04-03T01:57:27;102792.53;;;12.43;37.04
73936;BME280;62287;50.858;0.252;2023-04-03T01:57:58;102791.22;;;12.93;36.97
73936;BME280;62287;50.858;0.252;2023-04-03T01:58:29;102792.04;;;12.88;36.98
73936;BME280;62287;50.858;0.252;2023-04-03T01:59:02;102791.52;;;12.71;37.03
73936;BME280;62287;50.858;0.252;2023-04-03T01:59:33;102791.54;;;12.71;37.11
73936;BME280;62287;50.858;0.252;2023-04-03T02:00:05;102789.13;;;12.55;36.99
73936;BME280;62287;50.858;0.252;2023-04-03T02:00:36;102790.94;;;12.58;36.88
73936;BME280;62287;50.858;0.252;2023-04-03T02:01:07;102791.06;;;13.02;36.85
73936;BME280;62287;50.858;0.252;2023-04-03T02:01:38;102790.67;;;12.81;37.07
73936;BME280;62287;50.858;0.252;2023-04-03T02:02:09;102790.61;;;12.54;36.90
73936;BME280;62287;50.858;0.252;2023-04-03T02:02:40;102792.99;;;12.55;36.87
73936;BME280;62287;50.858;0.252;2023-04-03T02:03:11;102792.64;;;12.31;36.81
73936;BME280;62287;50.858;0.252;2023-04-03T02:03:42;102791.36;;;12.17;36.94
73936;BME280;62287;50.858;0.252;2023-04-03T02:04:13;102792.63;;;12.85;36.99
73936;BME280;62287;50.858;0.252;2023-04-03T02:04:44;102790.24;;;12.82;36.89
73936;BME280;62287;50.858;0.252;2023-04-03T02:05:15;102789.30;;;12.97;36.93
73936;BME280;62287;50.858;0.252;2023-04-03T02:05:46;102789.86;;;12.63;37.00
73936;BME280;62287;50.858;0.252;2023-04-03T02:06:17;102788.79;;;12.42;37.08
73936;BME280;62287;50.858;0.252;2023-04-03T02:06:48;102790.52;;;12.85;37.11
73936;BME280;62287;50.858;0.252;2023-04-03T02:07:19;102790.20;;;12.97;36.96
73936;BME280;62287;50.858;0.252;2023-04-03T02:07:50;102790.85;;;12.31;36.89
73936;BME280;62287;50.858;0.252;2023-04-03T02:08:21;102788.99;;;12.97;36.97
73936;BME280;62287;50.858;0.252;2023-04-03T02:08:52;102787.50;;;12.74;37.11
73936;BME280;62287;50.858;0.252;2023-04-03T02:09:23;102789.43;;;12.45;37.17
73936;BME280;62287;50.858;0.252;2023-04-03T02:09:53;102789.76;;;12.57;36.97
73936;BME280;62287;50.858;0.252;2023-04-03T02:10:25;102789.14;;;12.47;36.97
73936;BME280;62287;50.858;0.252;2023-04-03T02:10:56;102790.95;;;12.94;36.87
73936;BME280;62287;50.858;0.252;2023-04-03T02:11:27;102791.09;;;12.64;36.89
73936;BME280;62287;50.858;0.252;2023-04-03T02:11:58;102787.84;;;12.84;36.88
73936;BME280;62287;50.858;0.252;2023-04-03T02:12:29;102789.11;;;12.41;36.91
73936;BME280;62287;50.858;0.252;2023-04-03T02:13:02;102788.79;;;12.90;36.91
73936;BME280;62287;50.858;0.252;2023-04-03T02:13:33;102788.80;;;12.48;37.00
73936;BME280;62287;50.858;0.252;2023-04-03T02:14:04;102787.55;;;12.57;37.02
73936;BME280;62287;50.858;0.252;2023-04-03T02:14:35;102787.82;;;12.82;36.98
73936;BME280;62287;50.858;0.252;2023-04-03T02:15:07;102788.50;;;12.83;36.87
73936;BME280;62287;50.858;0.252;2023-04-03T02:15:38;102789.79;;;12.65;36.80
73936;BME280;62287;50.858;0.252;2023-04-03T02:16:10;102789.55;;;12.70;36.83
73936;BME280;62287;50.858;0.252;2023-04-03T02:16:41;102789.49;;;13.03;36.86
73936;BME280;62287;50.858;0.252;2023-04-03T02:17:12;102786.36;;;12.35;37.05
73936;BME280;62287;50.858;0.252;2023-04-03T02:17:43;102788.18;;;12.88;37.05
73936;BME280;62287;50.858;0.252;2023-04-03T02:18:15;102788.50;;;12.87;37.05
73936;BME280;62287;50.858;0.252;2023-04-03T02:18:46;102789.16;;;12.51;37.00
73936;BME280;62287;50.858;0.252;2023-04-03T02:19:17;102788.40;;;12.78;36.97
73936;BME280;62287;50.858;0.252;2023-04-03T02:19:48;102788.93;;;12.53;37.03
73936;BME280;62287;50.858;0.252;2023-04-03T02:20:20;102788.28;;;12.04;37.03
73936;BME280;62287;50.858;0.252;2023-04-03T02:20:51;102787.83;;;12.08;37.09
73936;BME280;62287;50.858;0.252;2023-04-03T02:21:22;102790.58;;;12.36;37.26
73936;BME280;62287;50.858;0.252;2023-04-03T02:21:53;102788.28;;;12.14;37.11
73936;BME280;62287;50.858;0.252;2023-04-03T02:22:24;102789.51;;;12.98;37.06
73936;BME280;62287;50.858;0.252;2023-04-03T02:22:55;102787.74;;;12.95;37.06
73936;BME280;62287;50.858;0.252;2023-04-03T02:23:26;102788.70;;;12.55;37.05
73936;BME280;62287;50.858;0.252;2023-04-03T02:23:57;102791.09;;;12.56;37.01
73936;BME280;62287;50.858;0.252;2023-04-03T02:24:28;102791.20;;;12.82;36.98
73936;BME280;62287;50.858;0.252;2023-04-03T02:24:59;102786.52;;;12.84;37.11
73936;BME280;62287;50.858;0.252;2023-04-03T02:25:30;102790.38;;;12.34;37.10
73936;BME280;62287;50.858;0.252;2023-04-03T02:26:05;102787.97;;;12.48;37.16
73936;BME280;62287;50.858;0.252;2023-04-03T02:26:36;102790.82;;;12.34;37.18
73936;BME280;62287;50.858;0.252;2023-04-03T02:27:07;102789.95;;;12.85;37.12
73936;BME280;62287;50.858;0.252;2023-04-03T02:27:38;102789.65;;;12.73;37.22
73936;BME280;62287;50.858;0.252;2023-04-03T02:28:09;102789.31;;;11.95;37.10
73936;BME280;62287;50.858;0.252;2023-04-03T02:28:40;102788.39;;;12.74;37.02
73936;BME280;62287;50.858;0.252;2023-04-03T02:29:12;102789.04;;;12.46;37.03
73936;BME280;62287;50.858;0.252;2023-04-03T02:29:43;102789.14;;;12.67;37.11
73936;BME280;62287;50.858;0.252;2023-04-03T02:30:20;102790.90;;;12.05;37.08
73936;BME280;62287;50.858;0.252;2023-04-03T02:30:51;102790.74;;;12.87;37.05
73936;BME280;62287;50.858;0.252;2023-04-03T02:31:22;102792.84;;;12.62;36.97
73936;BME280;62287;50.858;0.252;2023-04-03T02:31:53;102792.26;;;12.89;36.95
73936;BME280;62287;50.858;0.252;2023-04-03T02:32:23;102792.84;;;12.83;37.09
73936;BME280;62287;50.858;0.252;2023-04-03T02:32:54;102791.96;;;12.35;37.01
73936;BME280;62287;50.858;0.252;2023-04-03T02:33:25;102791.86;;;12.46;37.07
73936;BME280;62287;50.858;0.252;2023-04-03T02:33:56;102793.05;;;12.46;37.07
73936;BME280;62287;50.858;0.252;2023-04-03T02:34:27;102794.00;;;12.48;37.05
73936;BME280;62287;50.858;0.252;2023-04-03T02:34:58;102795.03;;;12.05;37.13
73936;BME280;62287;50.858;0.252;2023-04-03T02:35:29;102794.18;;;12.70;37.12
73936;BME280;62287;50.858;0.252;2023-04-03T02:36:02;102793.34;;;12.52;37.05
73936;BME280;62287;50.858;0.252;2023-04-03T02:36:34;102795.72;;;12.78;37.08
73936;BME280;62287;50.858;0.252;2023-04-03T02:37:05;102793.13;;;12.67;37.07
73936;BME280;62287;50.858;0.252;2023-04-03T02:37:36;102793.33;;;12.67;37.07
73936;BME280;62287;50.858;0.252;2023-04-03T02:38:07;102794.09;;;12.34;37.03
73936;BME280;62287;50.858;0.252;2023-04-03T02:38:38;102796.63;;;12.01;37.08
73936;BME280;62287;50.858;0.252;2023-04-03T02:39:09;102794.91;;;12.89;37.00
73936;BME280;62287;50.858;0.252;2023-04-03T02:39:44;102793.25;;;12.72;37.07
73936;BME280;62287;50.858;0.252;2023-04-03T02:40:15;102793.12;;;12.78;37.04
73936;BME280;62287;50.858;0.252;2023-04-03T02:40:47;102793.22;;;12.09;36.94
73936;BME280;62287;50.858;0.252;2023-04-03T02:41:18;102791.89;;;12.87;37.03
73936;BME280;62287;50.858;0.252;2023-04-03T02:41:49;102793.56;;;12.91;36.97
73936;BME280;62287;50.858;0.252;2023-04-03T02:42:20;102791.32;;;12.44;37.00
73936;BME280;62287;50.858;0.252;2023-04-03T02:42:51;102789.46;;;12.88;37.04
73936;BME280;62287;50.858;0.252;2023-04-03T02:43:22;102789.37;;;12.38;37.03
73936;BME280;62287;50.858;0.252;2023-04-03T02:43:53;102787.91;;;12.54;36.97
73936;BME280;62287;50.858;0.252;2023-04-03T02:44:24;102789.34;;;12.49;37.01
73936;BME280;62287;50.858;0.252;2023-04-03T02:44:55;102787.05;;;12.71;37.05
73936;BME280;62287;50.858;0.252;2023-04-03T02:45:26;102787.03;;;12.59;37.07
73936;BME280;62287;50.858;0.252;2023-04-03T02:45:57;102786.24;;;12.73;37.05
73936;BME280;62287;50.858;0.252;2023-04-03T02:46:28;102784.48;;;12.63;37.07
73936;BME280;62287;50.858;0.252;2023-04-03T02:46:59;102784.24;;;12.44;37.06
73936;BME280;62287;50.858;0.252;2023-04-03T02:47:30;102784.52;;;12.76;37.11
73936;BME280;62287;50.858;0.252;2023-04-03T02:48:02;102782.84;;;12.73;37.08
73936;BME280;62287;50.858;0.252;2023-04-03T02:48:34;102783.07;;;12.46;37.05
73936;BME280;62287;50.858;0.252;2023-04-03T02:49:05;102785.65;;;12.39;37.11